Time;durP1;ratioP1;P1;durP2;ratioP2;P2;SDS_P1;SDS_P2;PMS_P1;PMS_P2;Temp;Humidity;BMP_temperature;BMP_pressure;BME280_temperature;BME280_humidity;BME280_pressure;Samples;Min_cycle;Max_cycle;Signal;HPM_P1;HPM_P2
2022/10/11 00:00:32;;;;;;;16.13;7.20;;;20.80;63.80;;;;;;5006515;28;20026;-72
2022/10/11 00:02:59;;;;;;;14.23;6.78;;;20.80;64.90;;;;;;5005727;28;20088;-71
2022/10/11 00:05:37;;;;;;;18.35;7.43;;;20.80;64.70;;;;;;5085872;28;20405;-72
2022/10/11 00:08:14;;;;;;;15.18;6.78;;;21.00;64.80;;;;;;5065255;28;20452;-71
2022/10/11 00:10:57;;;;;;;18.50;7.15;;;21.00;65.90;;;;;;5106770;27;20337;-71
2022/10/11 00:13:34;;;;;;;18.05;7.10;;;21.00;65.30;;;;;;5065866;28;20936;-71
2022/10/11 00:16:13;;;;;;;16.73;6.95;;;21.00;65.10;;;;;;5106002;27;20366;-72
2022/10/11 00:18:49;;;;;;;13.13;7.18;;;21.00;64.60;;;;;;5066181;28;20410;-72
2022/10/11 00:21:27;;;;;;;14.98;6.97;;;21.00;64.20;;;;;;5066644;28;20453;-72
2022/10/11 00:24:05;;;;;;;14.75;7.00;;;21.00;64.30;;;;;;5106679;27;20335;-72
2022/10/11 00:26:42;;;;;;;14.65;6.82;;;21.00;64.00;;;;;;5066175;28;20402;-72
2022/10/11 00:29:19;;;;;;;20.38;7.25;;;21.00;63.90;;;;;;5106766;27;20327;-71
2022/10/11 00:31:57;;;;;;;14.73;7.28;;;21.00;63.80;;;;;;5106774;27;20419;-72
2022/10/11 00:34:34;;;;;;;13.40;6.70;;;20.90;63.70;;;;;;5107016;27;20337;-72
2022/10/11 00:37:11;;;;;;;14.23;6.90;;;20.90;63.60;;;;;;5065640;28;20464;-71
2022/10/11 00:39:49;;;;;;;13.80;6.18;;;20.90;63.70;;;;;;5086638;28;20347;-72
2022/10/11 00:42:26;;;;;;;12.38;6.80;;;20.90;63.60;;;;;;5065817;28;20406;-72
2022/10/11 00:45:25;;;;;;;15.27;6.85;;;20.90;63.80;;;;;;5106686;27;20331;-71
2022/10/11 00:48:10;;;;;;;14.07;7.10;;;20.90;63.70;;;;;;5064083;28;20403;-72
2022/10/11 00:50:47;;;;;;;20.17;7.00;;;20.90;64.20;;;;;;5061957;28;20817;-72
2022/10/11 00:53:29;;;;;;;16.92;7.38;;;20.90;64.10;;;;;;5087868;27;20681;-72
2022/10/11 00:56:16;;;;;;;15.82;7.20;;;20.90;63.90;;;;;;5067174;28;20398;-72
2022/10/11 00:58:54;;;;;;;14.05;6.82;;;20.90;63.80;;;;;;5067302;28;20052;-72
2022/10/11 01:01:31;;;;;;;13.82;6.03;;;20.80;63.50;;;;;;5086150;28;20800;-72
2022/10/11 01:04:19;;;;;;;15.25;6.55;;;20.80;63.50;;;;;;5067556;28;20410;-72
2022/10/11 01:06:56;;;;;;;16.40;7.03;;;20.80;63.50;;;;;;5113558;27;20546;-72
2022/10/11 01:09:33;;;;;;;11.38;6.30;;;20.80;63.50;;;;;;5108070;27;20777;-72
2022/10/11 01:12:18;;;;;;;14.13;6.68;;;20.80;63.30;;;;;;5058573;28;20454;-72
2022/10/11 01:15:06;;;;;;;12.23;5.95;;;20.80;63.30;;;;;;5067701;28;20410;-72
2022/10/11 01:17:58;;;;;;;12.75;6.10;;;20.80;63.50;;;;;;5068826;28;20379;-72
2022/10/11 01:20:48;;;;;;;13.77;6.18;;;20.80;63.40;;;;;;5068798;28;20777;-71
2022/10/11 01:23:43;;;;;;;18.30;6.50;;;20.80;63.40;;;;;;5088969;27;20388;-71
2022/10/11 01:26:39;;;;;;;15.70;6.47;;;20.80;63.40;;;;;;5095377;27;20954;-72
2022/10/11 01:29:30;;;;;;;15.23;6.20;;;20.80;63.50;;;;;;5084796;27;20409;-72
2022/10/11 01:32:47;;;;;;;12.07;5.13;;;20.80;63.30;;;;;;5067650;28;20410;-71
2022/10/11 01:35:42;;;;;;;15.70;5.90;;;20.80;63.30;;;;;;5067570;28;20402;-71
2022/10/11 01:38:23;;;;;;;18.67;6.65;;;20.80;63.30;;;;;;5067946;28;20402;-72
2022/10/11 01:41:08;;;;;;;15.32;5.80;;;20.80;63.20;;;;;;5067832;28;20395;-72
2022/10/11 01:43:47;;;;;;;16.92;6.53;;;20.80;63.30;;;;;;5088046;28;20455;-72
2022/10/11 01:46:26;;;;;;;17.98;6.43;;;20.80;63.30;;;;;;5067719;28;20399;-72
2022/10/11 01:49:04;;;;;;;15.82;6.40;;;20.80;63.40;;;;;;5088392;27;20401;-71
2022/10/11 01:51:49;;;;;;;16.10;6.30;;;20.70;63.40;;;;;;5067783;28;20406;-72
2022/10/11 01:55:01;;;;;;;16.58;5.63;;;20.80;63.30;;;;;;5067969;28;20822;-72
2022/10/11 01:57:54;;;;;;;12.52;5.32;;;20.80;63.40;;;;;;5067903;28;20398;-72
2022/10/11 02:00:58;;;;;;;14.95;5.47;;;20.80;63.20;;;;;;5067919;28;20953;-72
2022/10/11 02:03:35;;;;;;;13.90;5.70;;;20.80;63.30;;;;;;5067825;28;20906;-72
2022/10/11 02:06:27;;;;;;;14.48;6.25;;;20.80;63.20;;;;;;5107880;27;20338;-72
2022/10/11 02:09:13;;;;;;;14.05;5.57;;;20.80;63.20;;;;;;5068392;28;20398;-72
2022/10/11 02:11:52;;;;;;;15.35;5.25;;;20.80;63.00;;;;;;5067771;28;20500;-72
2022/10/11 02:14:34;;;;;;;17.58;5.40;;;20.80;63.30;;;;;;5067941;28;20793;-72
2022/10/11 02:17:19;;;;;;;11.35;5.40;;;20.80;63.20;;;;;;5108023;27;20396;-72
2022/10/11 02:19:57;;;;;;;14.32;5.82;;;20.80;63.10;;;;;;5067861;28;20794;-72
2022/10/11 02:22:39;;;;;;;17.08;6.15;;;20.80;63.30;;;;;;5060949;28;20396;-72
2022/10/11 02:25:21;;;;;;;14.68;5.78;;;20.70;63.20;;;;;;5087796;27;20800;-72
2022/10/11 02:28:02;;;;;;;14.35;5.35;;;20.70;63.30;;;;;;5067858;28;20387;-72
2022/10/11 02:30:41;;;;;;;13.40;5.80;;;20.80;63.40;;;;;;5068001;28;20972;-71
2022/10/11 02:33:23;;;;;;;15.32;5.90;;;20.70;63.00;;;;;;5067599;28;20539;-72
2022/10/11 02:36:08;;;;;;;13.98;5.50;;;20.80;63.20;;;;;;5067426;28;20890;-71
2022/10/11 02:38:54;;;;;;;17.85;5.90;;;20.70;63.00;;;;;;5067905;28;20399;-72
2022/10/11 02:41:37;;;;;;;15.00;5.07;;;20.70;63.20;;;;;;5067735;28;20111;-72
2022/10/11 02:44:39;;;;;;;13.73;5.40;;;20.70;63.10;;;;;;5067864;28;20914;-72
2022/10/11 02:47:15;;;;;;;15.32;5.35;;;20.70;63.40;;;;;;5087708;28;20798;-72
2022/10/11 02:49:53;;;;;;;9.82;5.22;;;20.70;63.20;;;;;;5108339;27;20872;-72
2022/10/11 02:52:30;;;;;;;8.73;4.78;;;20.70;63.10;;;;;;5107921;27;20446;-72
2022/10/11 02:55:08;;;;;;;13.75;5.20;;;20.70;63.20;;;;;;5108309;27;20341;-72
2022/10/11 02:57:45;;;;;;;13.82;5.85;;;20.70;63.00;;;;;;5128922;27;20402;-72
2022/10/11 03:00:22;;;;;;;9.63;5.15;;;20.80;63.30;;;;;;5108464;27;20338;-71
2022/10/11 03:03:00;;;;;;;13.65;5.10;;;20.80;63.10;;;;;;5067319;28;20909;-72
2022/10/11 03:05:40;;;;;;;10.90;5.15;;;20.80;63.00;;;;;;5103013;27;20869;-71
2022/10/11 03:08:16;;;;;;;12.85;5.63;;;20.80;63.30;;;;;;5047868;28;20458;-72
2022/10/11 03:10:54;;;;;;;11.35;5.30;;;20.80;63.20;;;;;;5087947;28;20347;-72
2022/10/11 03:13:31;;;;;;;14.65;4.95;;;20.70;63.30;;;;;;5108067;27;20450;-71
2022/10/11 03:16:08;;;;;;;13.93;5.40;;;20.80;63.10;;;;;;5067491;28;20143;-72
2022/10/11 03:18:45;;;;;;;12.10;5.07;;;20.70;63.30;;;;;;5108415;27;20339;-72
2022/10/11 03:21:24;;;;;;;13.60;4.95;;;20.80;63.40;;;;;;5067732;28;21177;-72
2022/10/11 03:24:01;;;;;;;11.45;4.82;;;20.70;63.10;;;;;;5088059;28;20427;-72
2022/10/11 03:26:38;;;;;;;10.93;4.85;;;20.70;63.00;;;;;;5108067;27;20307;-72
2022/10/11 03:29:15;;;;;;;9.95;4.47;;;20.70;63.40;;;;;;5067815;28;20893;-72
2022/10/11 03:31:53;;;;;;;11.48;5.55;;;20.70;63.30;;;;;;5107931;27;20303;-72
2022/10/11 03:34:30;;;;;;;15.23;5.15;;;20.70;63.40;;;;;;5067818;28;20449;-72
2022/10/11 03:37:08;;;;;;;9.88;4.82;;;20.70;63.10;;;;;;5108061;27;20296;-71
2022/10/11 03:39:45;;;;;;;13.95;5.43;;;20.70;63.20;;;;;;5067760;28;20391;-72
2022/10/11 03:42:22;;;;;;;9.93;4.75;;;20.70;63.40;;;;;;5107977;27;20306;-72
2022/10/11 03:45:03;;;;;;;10.85;4.82;;;20.70;63.30;;;;;;5067714;28;20387;-72
2022/10/11 03:47:40;;;;;;;12.40;5.00;;;20.70;62.80;;;;;;5067838;28;20394;-71
2022/10/11 03:50:17;;;;;;;10.82;5.13;;;20.70;63.20;;;;;;5108213;27;20318;-72
2022/10/11 03:52:55;;;;;;;9.25;4.45;;;20.70;63.20;;;;;;5106782;27;20376;-72
2022/10/11 03:55:32;;;;;;;10.77;4.40;;;20.70;63.20;;;;;;5107951;27;20306;-72
2022/10/11 03:58:20;;;;;;;11.73;4.57;;;20.70;63.20;;;;;;5067826;28;20410;-72
2022/10/11 04:00:58;;;;;;;9.50;4.38;;;20.70;63.20;;;;;;5067676;28;20402;-72
2022/10/11 04:03:35;;;;;;;10.82;4.97;;;20.70;63.20;;;;;;5087823;28;20319;-72
2022/10/11 04:06:12;;;;;;;10.27;4.50;;;20.80;63.90;;;;;;5088514;28;20889;-72
2022/10/11 04:08:57;;;;;;;13.15;5.07;;;20.70;63.00;;;;;;5087910;28;20036;-72
2022/10/11 04:11:34;;;;;;;10.25;4.50;;;20.80;63.00;;;;;;5094141;27;20319;-72
2022/10/11 04:14:12;;;;;;;11.27;4.82;;;20.70;63.50;;;;;;5076774;28;20913;-72
2022/10/11 04:16:49;;;;;;;9.07;4.82;;;20.70;63.50;;;;;;5071239;28;20353;-72
2022/10/11 04:19:27;;;;;;;10.75;4.82;;;20.70;63.30;;;;;;5054594;28;20473;-72
2022/10/11 04:22:06;;;;;;;13.00;4.65;;;20.70;63.20;;;;;;5068318;28;20402;-72
2022/10/11 04:24:43;;;;;;;11.57;4.05;;;20.70;63.20;;;;;;5052223;28;20918;-72
2022/10/11 04:27:20;;;;;;;9.85;4.65;;;20.70;63.20;;;;;;5095914;27;20315;-72
2022/10/11 04:29:58;;;;;;;12.25;4.55;;;20.70;63.70;;;;;;5088658;27;20467;-72
2022/10/11 04:32:35;;;;;;;8.23;4.50;;;20.70;63.10;;;;;;5073345;28;20364;-72
2022/10/11 04:35:13;;;;;;;9.73;4.35;;;20.70;63.70;;;;;;5056052;28;20470;-72
2022/10/11 04:37:50;;;;;;;11.40;4.72;;;20.70;63.30;;;;;;5031401;28;20593;-72
2022/10/11 04:40:27;;;;;;;10.23;4.70;;;20.70;63.40;;;;;;5094402;27;20375;-72
2022/10/11 04:43:04;;;;;;;12.20;4.88;;;20.70;63.30;;;;;;5067915;28;20418;-72
2022/10/11 04:45:42;;;;;;;7.95;4.25;;;20.70;63.30;;;;;;5091737;27;20332;-72
2022/10/11 04:48:19;;;;;;;11.73;4.78;;;20.70;63.30;;;;;;5054767;28;20412;-71
2022/10/11 04:50:57;;;;;;;9.18;5.00;;;20.70;63.50;;;;;;5088700;27;20387;-72
2022/10/11 04:53:36;;;;;;;8.18;4.07;;;20.70;63.30;;;;;;5052581;28;20478;-72
2022/10/11 04:56:14;;;;;;;10.93;4.57;;;20.70;63.30;;;;;;5055550;28;20053;-72
2022/10/11 04:58:53;;;;;;;8.70;4.05;;;20.70;63.10;;;;;;5067776;28;20394;-72
2022/10/11 05:01:31;;;;;;;9.82;4.55;;;20.70;63.10;;;;;;5073237;28;20457;-72
2022/10/11 05:04:07;;;;;;;9.00;4.43;;;20.70;63.30;;;;;;5088045;28;20137;-72
2022/10/11 05:06:44;;;;;;;11.30;4.65;;;20.70;63.10;;;;;;5091451;27;20839;-71
2022/10/11 05:09:22;;;;;;;8.43;4.10;;;20.70;63.50;;;;;;5094983;27;20394;-72
2022/10/11 05:11:58;;;;;;;9.10;4.25;;;20.70;63.30;;;;;;5087775;28;20137;-72
2022/10/11 05:14:37;;;;;;;7.50;4.13;;;20.70;63.30;;;;;;5060508;28;20471;-71
2022/10/11 05:17:13;;;;;;;8.70;4.32;;;20.70;63.40;;;;;;5066408;28;20045;-72
2022/10/11 05:20:04;;;;;;;9.40;4.00;;;20.70;63.30;;;;;;5068005;28;20785;-72
2022/10/11 05:22:41;;;;;;;8.23;4.40;;;20.70;63.00;;;;;;5108507;27;20869;-72
2022/10/11 05:25:18;;;;;;;13.18;4.53;;;20.70;63.30;;;;;;5067591;28;20398;-71
2022/10/11 05:27:56;;;;;;;9.00;4.38;;;20.70;63.10;;;;;;5129151;27;20330;-72
2022/10/11 05:30:33;;;;;;;11.32;4.38;;;20.70;63.50;;;;;;5067845;28;20402;-72
2022/10/11 05:33:10;;;;;;;12.07;4.75;;;20.70;63.60;;;;;;5108234;27;20356;-72
2022/10/11 05:35:48;;;;;;;8.07;4.38;;;20.70;63.80;;;;;;5067420;28;20394;-71
2022/10/11 05:38:25;;;;;;;10.27;5.00;;;20.70;63.70;;;;;;5108474;27;20834;-71
2022/10/11 05:41:04;;;;;;;13.15;4.15;;;20.70;63.60;;;;;;5067763;28;20449;-71
2022/10/11 05:43:43;;;;;;;9.70;3.85;;;20.70;63.60;;;;;;5066143;28;20452;-72
2022/10/11 05:46:19;;;;;;;8.07;4.13;;;20.70;63.80;;;;;;5067446;28;20802;-72
2022/10/11 05:48:56;;;;;;;10.82;4.07;;;20.70;64.00;;;;;;5107585;27;20864;-71
2022/10/11 05:51:34;;;;;;;11.25;4.38;;;20.70;64.80;;;;;;5050083;28;20400;-72
2022/10/11 05:54:11;;;;;;;8.35;4.28;;;20.60;63.80;;;;;;5058255;28;20908;-75
2022/10/11 05:56:49;;;;;;;9.32;4.32;;;20.60;63.90;;;;;;5070127;28;20406;-75
2022/10/11 05:59:26;;;;;;;7.90;4.13;;;20.70;63.80;;;;;;5117554;27;20342;-74
2022/10/11 06:02:05;;;;;;;10.30;4.00;;;20.70;63.60;;;;;;5098675;28;20421;-74
2022/10/11 06:04:44;;;;;;;11.80;4.25;;;20.70;63.40;;;;;;5115808;27;20388;-75
2022/10/11 06:07:22;;;;;;;8.80;4.40;;;20.70;63.30;;;;;;5121176;27;20466;-74
2022/10/11 06:09:58;;;;;;;12.43;4.38;;;20.70;63.80;;;;;;5073448;28;20139;-75
2022/10/11 06:12:37;;;;;;;9.18;4.28;;;20.70;63.10;;;;;;5090443;28;20458;-74
2022/10/11 06:15:29;;;;;;;9.70;4.18;;;20.70;64.00;;;;;;5088976;27;20450;-74
2022/10/11 06:18:23;;;;;;;8.13;4.03;;;20.70;63.40;;;;;;5097900;27;20134;-74
2022/10/11 06:21:18;;;;;;;11.63;4.30;;;20.70;63.30;;;;;;5141367;27;20126;-74
2022/10/11 06:24:14;;;;;;;8.23;4.40;;;20.70;63.40;;;;;;5170886;27;20393;-74
2022/10/11 06:27:14;;;;;;;8.50;3.65;;;20.70;64.00;;;;;;5128921;27;20978;-74
2022/10/11 06:30:11;;;;;;;8.82;3.97;;;20.60;63.50;;;;;;5086093;27;20423;-74
2022/10/11 06:33:06;;;;;;;9.05;4.43;;;20.70;63.90;;;;;;5179363;27;20768;-74
2022/10/11 06:35:59;;;;;;;9.88;4.40;;;20.70;63.90;;;;;;5128896;27;20872;-75
2022/10/11 06:39:05;;;;;;;11.18;4.65;;;20.60;63.80;;;;;;5142367;27;20427;-74
2022/10/11 06:42:00;;;;;;;7.82;3.80;;;20.70;63.90;;;;;;5187436;27;20963;-74
2022/10/11 06:44:57;;;;;;;7.53;3.80;;;20.70;64.00;;;;;;5092941;27;20395;-74
2022/10/11 06:47:52;;;;;;;12.75;4.60;;;20.60;63.80;;;;;;5149316;27;20341;-74
2022/10/11 06:50:45;;;;;;;12.27;3.90;;;20.60;63.90;;;;;;5089276;27;20423;-75
2022/10/11 06:53:39;;;;;;;11.13;3.80;;;20.60;63.90;;;;;;5076266;27;20419;-73
2022/10/11 06:56:45;;;;;;;12.57;4.13;;;20.70;63.90;;;;;;5118227;27;20421;-74
2022/10/11 06:59:45;;;;;;;11.23;4.00;;;20.60;63.80;;;;;;5141322;27;20382;-76
2022/10/11 07:02:40;;;;;;;9.40;4.22;;;20.70;63.30;;;;;;5089180;27;20122;-76
2022/10/11 07:06:06;;;;;;;7.10;3.40;;;20.70;63.40;;;;;;5109134;27;20566;-75
2022/10/11 07:09:01;;;;;;;12.00;4.68;;;20.70;63.40;;;;;;5191145;27;20926;-75
2022/10/11 07:11:54;;;;;;;10.73;3.67;;;20.70;63.60;;;;;;5088300;27;20447;-75
2022/10/11 07:14:48;;;;;;;12.85;4.40;;;20.70;63.60;;;;;;5125628;27;20341;-75
2022/10/11 07:17:51;;;;;;;11.23;3.92;;;20.70;63.80;;;;;;5191244;27;20391;-74
2022/10/11 07:20:45;;;;;;;8.40;3.70;;;20.70;63.50;;;;;;5187160;27;20459;-74
2022/10/11 07:23:36;;;;;;;11.32;3.97;;;20.70;63.40;;;;;;5128704;27;20346;-75
2022/10/11 07:26:27;;;;;;;8.18;3.58;;;20.70;63.70;;;;;;5089326;27;20503;-75
2022/10/11 07:29:42;;;;;;;10.13;3.70;;;20.70;63.50;;;;;;5109388;27;20207;-76
2022/10/11 07:32:50;;;;;;;8.05;3.88;;;20.70;63.40;;;;;;5136297;27;20839;-75
2022/10/11 07:35:41;;;;;;;11.27;3.90;;;20.70;63.40;;;;;;5128915;27;20349;-75
2022/10/11 07:38:39;;;;;;;10.35;3.97;;;20.70;63.40;;;;;;5186228;27;20388;-75
2022/10/11 07:41:31;;;;;;;13.80;4.45;;;20.70;63.70;;;;;;5121819;27;20502;-74
2022/10/11 07:44:40;;;;;;;13.80;4.35;;;20.70;64.30;;;;;;5107309;27;20120;-74
2022/10/11 07:47:35;;;;;;;13.38;4.45;;;20.70;64.20;;;;;;5182307;27;20406;-74
2022/10/11 07:50:39;;;;;;;10.10;3.90;;;20.80;64.80;;;;;;5128656;27;20372;-74
2022/10/11 07:53:47;;;;;;;12.82;3.88;;;20.80;65.10;;;;;;5102794;27;20433;-73
2022/10/11 07:56:42;;;;;;;10.25;3.90;;;20.90;65.00;;;;;;5109296;27;20415;-74
2022/10/11 07:59:30;;;;;;;19.25;4.68;;;20.90;64.90;;;;;;5047384;28;20797;-74
2022/10/11 08:02:23;;;;;;;9.90;4.05;;;20.90;64.90;;;;;;5088227;27;20510;-74
2022/10/11 08:05:24;;;;;;;13.88;4.28;;;21.00;65.10;;;;;;5108928;27;20746;-73
2022/10/11 08:08:14;;;;;;;12.43;4.15;;;21.00;64.90;;;;;;5081474;27;20510;-74
2022/10/11 08:11:08;;;;;;;14.93;4.20;;;21.00;65.00;;;;;;5128460;27;20575;-74
2022/10/11 08:14:07;;;;;;;11.73;4.20;;;21.00;65.10;;;;;;5068737;27;20716;-74
2022/10/11 08:16:58;;;;;;;17.27;3.90;;;21.00;65.20;;;;;;5113221;27;20509;-75
2022/10/11 08:19:54;;;;;;;14.80;4.55;;;21.10;65.30;;;;;;5140735;27;20402;-74
2022/10/11 08:22:51;;;;;;;11.23;4.32;;;21.10;65.40;;;;;;5099756;27;20422;-74
2022/10/11 08:25:56;;;;;;;10.88;4.28;;;21.20;66.10;;;;;;5102568;27;20417;-73
2022/10/11 08:28:50;;;;;;;20.45;5.28;;;21.20;66.60;;;;;;5187806;27;20398;-73
2022/10/11 08:31:47;;;;;;;11.57;4.50;;;21.30;67.40;;;;;;5123591;27;20871;-73
2022/10/11 08:34:48;;;;;;;19.75;5.43;;;21.40;68.60;;;;;;5135179;27;20338;-75
2022/10/11 08:37:39;;;;;;;13.07;5.28;;;21.40;68.60;;;;;;5102775;27;20120;-76
2022/10/11 08:40:34;;;;;;;16.88;5.05;;;21.40;70.00;;;;;;5187641;27;20869;-72
2022/10/11 08:43:49;;;;;;;10.85;4.47;;;21.40;69.60;;;;;;5107159;27;20445;-73
2022/10/11 08:46:47;;;;;;;10.25;4.40;;;21.30;68.30;;;;;;5087249;27;20504;-73
2022/10/11 08:49:58;;;;;;;11.30;4.80;;;21.30;67.80;;;;;;5144054;27;20822;-74
2022/10/11 08:52:56;;;;;;;14.48;4.70;;;21.30;67.60;;;;;;5085869;27;20487;-75
2022/10/11 08:55:52;;;;;;;11.60;4.45;;;21.30;67.60;;;;;;5087205;27;20411;-74
2022/10/11 08:59:23;;;;;;;16.63;4.45;;;21.30;67.40;;;;;;5086488;27;20488;-75
2022/10/11 09:02:36;;;;;;;13.75;4.65;;;21.20;67.10;;;;;;5066286;28;20803;-73
2022/10/11 09:05:15;;;;;;;12.52;4.25;;;21.30;67.30;;;;;;5105027;27;20404;-76
2022/10/11 09:08:21;;;;;;;14.98;5.03;;;21.30;67.20;;;;;;5064261;28;20406;-73
2022/10/11 09:11:00;;;;;;;12.80;4.45;;;21.30;67.10;;;;;;5105571;27;20450;-74
2022/10/11 09:14:16;;;;;;;10.93;4.25;;;21.30;67.00;;;;;;5066747;28;20379;-74
2022/10/11 09:17:05;;;;;;;8.88;3.75;;;21.30;66.80;;;;;;5066022;28;20374;-76
2022/10/11 09:19:53;;;;;;;16.95;8.45;;;21.30;66.80;;;;;;5067396;28;20028;-74
2022/10/11 09:22:49;;;;;;;23.95;11.27;;;21.20;66.20;;;;;;5063787;28;20032;-74
2022/10/11 09:25:52;;;;;;;23.25;11.48;;;21.10;65.30;;;;;;5062714;28;20052;-74
2022/10/11 09:28:33;;;;;;;24.70;13.50;;;21.10;64.30;;;;;;5043157;28;20583;-74
2022/10/11 09:30:59;;;;;;;28.73;14.15;;;21.10;63.60;;;;;;5060139;28;20029;-73
2022/10/11 09:33:45;;;;;;;26.55;13.52;;;21.10;63.70;;;;;;5062757;28;20029;-75
2022/10/11 09:36:51;;;;;;;25.35;13.98;;;21.10;63.60;;;;;;5064922;28;20028;-75
2022/10/11 09:39:29;;;;;;;28.27;13.50;;;21.10;63.70;;;;;;5065488;28;20047;-74
2022/10/11 09:42:00;;;;;;;24.50;13.30;;;21.10;63.90;;;;;;5067464;28;20087;-73
2022/10/11 09:44:31;;;;;;;24.75;11.82;;;21.10;64.10;;;;;;5050752;28;20032;-74
2022/10/11 09:46:57;;;;;;;24.52;12.30;;;21.10;64.20;;;;;;5067181;28;20416;-74
2022/10/11 09:49:34;;;;;;;26.73;12.15;;;21.10;64.20;;;;;;5067389;28;20031;-74
2022/10/11 09:52:02;;;;;;;29.42;12.25;;;21.10;64.40;;;;;;5068403;28;20063;-75
2022/10/11 09:55:02;;;;;;;23.80;11.57;;;21.10;64.40;;;;;;5068088;28;20025;-74
2022/10/11 09:57:36;;;;;;;24.42;12.15;;;21.00;64.30;;;;;;5059908;28;20063;-74
2022/10/11 10:00:21;;;;;;;23.02;11.65;;;21.10;64.30;;;;;;5065692;28;20028;-74
2022/10/11 10:02:56;;;;;;;24.30;12.05;;;21.10;64.40;;;;;;5048602;28;20052;-74
2022/10/11 10:05:31;;;;;;;24.38;11.77;;;21.10;64.40;;;;;;5064992;28;20036;-73
2022/10/11 10:08:21;;;;;;;20.77;11.65;;;21.10;64.30;;;;;;5048897;28;20037;-74
2022/10/11 10:11:06;;;;;;;23.65;12.18;;;21.10;64.40;;;;;;5056919;28;20033;-73
2022/10/11 10:13:41;;;;;;;24.25;11.30;;;21.10;64.40;;;;;;5067976;28;20025;-73
2022/10/11 10:16:10;;;;;;;20.00;11.43;;;21.20;64.50;;;;;;5066005;28;20033;-73
2022/10/11 10:18:50;;;;;;;21.42;10.98;;;21.10;64.40;;;;;;5067434;28;20198;-73
2022/10/11 10:21:32;;;;;;;23.65;11.50;;;21.10;64.50;;;;;;5047453;28;20021;-74
2022/10/11 10:24:03;;;;;;;19.67;10.57;;;21.10;64.50;;;;;;5054113;28;20025;-74
2022/10/11 10:26:30;;;;;;;26.58;10.95;;;21.10;64.60;;;;;;5046031;28;20036;-74
2022/10/11 10:29:07;;;;;;;22.92;11.70;;;21.10;64.50;;;;;;5034535;28;20029;-73
2022/10/11 10:31:35;;;;;;;22.30;11.48;;;21.10;64.60;;;;;;5033622;28;20037;-74
2022/10/11 10:34:05;;;;;;;17.85;10.48;;;21.10;64.60;;;;;;5048204;28;20025;-74
2022/10/11 10:36:38;;;;;;;22.25;10.48;;;21.10;64.70;;;;;;5052560;28;20033;-74
2022/10/11 10:39:20;;;;;;;19.65;10.50;;;21.10;64.80;;;;;;5036957;28;20036;-74
2022/10/11 10:41:46;;;;;;;18.23;9.85;;;21.10;64.70;;;;;;5053288;28;20037;-73
2022/10/11 10:44:14;;;;;;;19.63;9.82;;;21.10;64.50;;;;;;5053082;28;20099;-73
2022/10/11 10:47:16;;;;;;;17.40;10.38;;;21.10;65.20;;;;;;5052728;28;20075;-74
2022/10/11 10:50:09;;;;;;;21.13;10.52;;;21.10;65.20;;;;;;5047324;28;20045;-74
2022/10/11 10:52:38;;;;;;;18.90;10.05;;;21.10;64.60;;;;;;5049575;28;20182;-73
2022/10/11 10:55:19;;;;;;;20.37;9.27;;;21.10;64.70;;;;;;5054027;28;20044;-74
2022/10/11 10:57:50;;;;;;;18.42;9.85;;;21.00;64.60;;;;;;5035813;28;20028;-74
2022/10/11 11:00:19;;;;;;;17.48;9.82;;;21.10;64.70;;;;;;5031319;28;20081;-74
2022/10/11 11:02:51;;;;;;;16.45;9.18;;;21.10;64.70;;;;;;5048184;28;20086;-75
2022/10/11 11:05:47;;;;;;;19.17;10.23;;;21.10;64.70;;;;;;5044757;28;20381;-74
2022/10/11 11:08:44;;;;;;;19.25;9.45;;;21.10;64.70;;;;;;5050021;28;20053;-74
2022/10/11 11:11:21;;;;;;;17.25;9.32;;;21.10;64.60;;;;;;5048478;28;20039;-74
2022/10/11 11:14:26;;;;;;;17.48;9.65;;;21.10;64.60;;;;;;5046958;28;20032;-75
2022/10/11 11:17:23;;;;;;;16.27;9.52;;;21.20;64.70;;;;;;5030581;28;20055;-75
2022/10/11 11:19:57;;;;;;;24.10;10.30;;;21.10;65.10;;;;;;5043450;28;20477;-75
2022/10/11 11:22:35;;;;;;;26.50;9.38;;;21.20;64.60;;;;;;5052214;28;20131;-74
2022/10/11 11:25:01;;;;;;;18.85;9.68;;;21.10;64.50;;;;;;5046798;28;20464;-77
2022/10/11 11:28:03;;;;;;;25.33;9.27;;;21.20;64.60;;;;;;5042132;28;20033;-76
2022/10/11 11:30:59;;;;;;;17.25;9.18;;;21.20;64.70;;;;;;5043197;28;20049;-76
2022/10/11 11:33:43;;;;;;;23.13;9.18;;;21.10;64.80;;;;;;5041637;28;20037;-77
2022/10/11 11:36:15;;;;;;;20.15;9.18;;;21.10;64.70;;;;;;5045696;28;20025;-77
2022/10/11 11:39:01;;;;;;;17.63;9.73;;;21.10;64.60;;;;;;5047470;28;20457;-76
2022/10/11 11:41:44;;;;;;;18.63;8.93;;;21.10;64.60;;;;;;5053000;28;20086;-75
2022/10/11 11:44:18;;;;;;;23.48;9.02;;;21.10;64.70;;;;;;5053142;28;20028;-76
2022/10/11 11:46:52;;;;;;;30.00;11.35;;;21.20;65.50;;;;;;5051048;28;20474;-76
2022/10/11 11:49:43;;;;;;;24.23;9.55;;;21.20;65.40;;;;;;5051041;28;20029;-77
2022/10/11 11:55:08;;;;;;;31.52;12.45;;;21.20;64.30;;;;;;4952664;28;20087;-73
2022/10/11 11:57:52;;;;;;;24.83;10.57;;;21.10;64.40;;;;;;4968932;28;20051;-72
2022/10/11 12:00:20;;;;;;;24.13;10.70;;;21.10;64.40;;;;;;4969698;28;20050;-73
2022/10/11 12:02:51;;;;;;;25.45;10.45;;;21.10;64.50;;;;;;4946829;29;20086;-73
2022/10/11 12:05:20;;;;;;;29.10;11.45;;;21.10;64.60;;;;;;4935211;29;20032;-72
2022/10/11 12:07:55;;;;;;;25.45;11.02;;;21.10;64.60;;;;;;4935794;29;20031;-73
2022/10/11 12:10:48;;;;;;;27.88;11.40;;;21.10;64.70;;;;;;4934330;29;20419;-73
2022/10/11 12:13:46;;;;;;;26.77;10.85;;;21.10;64.70;;;;;;4935497;29;20036;-73
2022/10/11 12:16:14;;;;;;;27.02;10.60;;;21.10;64.70;;;;;;4922400;29;20071;-73
2022/10/11 12:18:58;;;;;;;23.08;10.98;;;21.10;64.70;;;;;;4950206;29;20035;-73
2022/10/11 12:21:38;;;;;;;23.15;10.73;;;21.10;64.70;;;;;;4933915;29;20492;-73
2022/10/11 12:24:22;;;;;;;23.92;10.68;;;21.10;64.50;;;;;;4918724;29;20038;-73
2022/10/11 12:26:56;;;;;;;21.98;10.32;;;21.10;64.60;;;;;;4949520;29;20031;-73
2022/10/11 12:29:41;;;;;;;27.63;10.20;;;21.10;64.40;;;;;;4918293;29;20047;-73
2022/10/11 12:32:09;;;;;;;21.30;9.85;;;21.00;64.50;;;;;;4933759;29;20035;-73
2022/10/11 12:34:35;;;;;;;24.45;9.95;;;21.00;64.50;;;;;;4934981;29;20046;-73
2022/10/11 12:37:19;;;;;;;26.10;10.77;;;21.00;64.40;;;;;;4949296;29;20107;-73
2022/10/11 12:39:49;;;;;;;25.05;11.23;;;21.00;64.50;;;;;;4934778;29;20038;-72
2022/10/11 12:42:33;;;;;;;24.88;10.68;;;21.00;64.60;;;;;;4934867;29;20036;-72
2022/10/11 12:45:11;;;;;;;23.80;10.57;;;21.00;64.60;;;;;;4934848;29;20111;-72
2022/10/11 12:48:10;;;;;;;27.90;10.43;;;21.00;64.50;;;;;;4934587;29;20071;-74
2022/10/11 12:50:36;;;;;;;24.80;9.30;;;21.00;65.50;;;;;;4927067;28;20031;-72
2022/10/11 12:53:16;;;;;;;28.05;10.82;;;21.00;65.20;;;;;;4947409;28;20038;-72
2022/10/11 12:55:57;;;;;;;23.98;9.45;;;21.00;65.90;;;;;;4942683;29;20478;-73
2022/10/11 12:58:40;;;;;;;22.33;9.98;;;21.00;66.00;;;;;;4926842;29;20027;-73
2022/10/11 13:01:08;;;;;;;24.58;9.95;;;21.00;66.00;;;;;;4930326;29;20054;-73
2022/10/11 13:03:37;;;;;;;21.55;9.98;;;21.10;66.50;;;;;;4964301;28;20027;-73
2022/10/11 13:06:25;;;;;;;22.80;10.73;;;21.10;66.00;;;;;;4950571;29;20031;-72
2022/10/11 13:08:55;;;;;;;27.92;10.32;;;21.10;66.40;;;;;;4961169;28;20110;-75
2022/10/11 13:11:26;;;;;;;21.70;9.80;;;21.10;66.30;;;;;;4950824;29;20023;-75
2022/10/11 13:13:59;;;;;;;25.42;10.82;;;21.10;65.40;;;;;;4964074;28;20028;-74
2022/10/11 13:16:31;;;;;;;23.92;10.15;;;21.10;66.10;;;;;;4947806;29;20038;-73
2022/10/11 13:18:58;;;;;;;21.52;10.05;;;21.10;66.10;;;;;;4934450;29;20035;-73
2022/10/11 13:21:31;;;;;;;26.10;9.50;;;21.00;65.00;;;;;;4933390;29;20320;-73
2022/10/11 13:24:00;;;;;;;24.73;9.40;;;21.10;65.00;;;;;;4933372;29;20096;-73
2022/10/11 13:26:29;;;;;;;22.15;9.82;;;21.10;65.40;;;;;;4948518;29;20063;-73
2022/10/11 13:28:55;;;;;;;21.08;9.13;;;21.10;66.20;;;;;;4948435;29;20058;-73
2022/10/11 13:31:23;;;;;;;23.80;10.05;;;21.10;66.50;;;;;;4953532;28;20035;-73
2022/10/11 13:33:53;;;;;;;21.30;9.13;;;21.10;66.10;;;;;;4966396;28;20062;-73
2022/10/11 13:36:20;;;;;;;27.70;9.35;;;21.10;65.50;;;;;;4944778;28;20046;-73
2022/10/11 13:38:57;;;;;;;27.38;10.07;;;21.10;66.90;;;;;;4966541;28;20031;-73
2022/10/11 13:41:26;;;;;;;82.40;17.27;;;21.20;66.40;;;;;;4942490;29;20023;-73
2022/10/11 13:43:54;;;;;;;154.88;23.52;;;21.20;67.20;;;;;;4943042;29;20101;-73
2022/10/11 13:46:25;;;;;;;202.30;38.53;;;21.20;69.60;;;;;;4961024;28;20036;-72
2022/10/11 13:49:21;;;;;;;193.35;43.05;;;21.20;69.50;;;;;;4951813;29;20121;-72
2022/10/11 13:51:57;;;;;;;209.27;52.67;;;21.20;69.30;;;;;;4953378;29;20081;-72
2022/10/11 13:54:23;;;;;;;169.98;41.75;;;21.20;68.80;;;;;;4951824;29;20065;-73
2022/10/11 13:56:51;;;;;;;192.02;49.63;;;21.20;69.80;;;;;;4963823;28;20079;-73
2022/10/11 13:59:22;;;;;;;157.93;43.33;;;21.20;71.50;;;;;;4941480;29;20024;-72